sensor_id;sensor_type;location;lat;lon;timestamp;P1;durP1;ratioP1;P2;durP2;ratioP2
31537;SDS011;18147;51.952;6.146;2023-08-06T00:01:14;18.50;;;13.35;;
31537;SDS011;18147;51.952;6.146;2023-08-06T00:03:39;19.70;;;12.43;;
31537;SDS011;18147;51.952;6.146;2023-08-06T00:06:05;18.98;;;13.57;;
31537;SDS011;18147;51.952;6.146;2023-08-06T00:08:31;21.55;;;13.80;;
31537;SDS011;18147;51.952;6.146;2023-08-06T00:10:57;18.23;;;13.60;;
31537;SDS011;18147;51.952;6.146;2023-08-06T00:13:22;17.27;;;14.55;;
31537;SDS011;18147;51.952;6.146;2023-08-06T00:15:48;19.23;;;14.50;;
31537;SDS011;18147;51.952;6.146;2023-08-06T00:18:13;19.58;;;13.30;;
31537;SDS011;18147;51.952;6.146;2023-08-06T00:20:39;19.67;;;14.10;;
31537;SDS011;18147;51.952;6.146;2023-08-06T00:23:06;22.00;;;14.52;;
31537;SDS011;18147;51.952;6.146;2023-08-06T00:25:31;20.10;;;14.57;;
31537;SDS011;18147;51.952;6.146;2023-08-06T00:27:57;20.35;;;14.88;;
31537;SDS011;18147;51.952;6.146;2023-08-06T00:30:22;20.88;;;14.88;;
31537;SDS011;18147;51.952;6.146;2023-08-06T00:32:49;23.05;;;15.57;;
31537;SDS011;18147;51.952;6.146;2023-08-06T00:35:17;22.27;;;14.93;;
31537;SDS011;18147;51.952;6.146;2023-08-06T00:37:43;26.50;;;16.48;;
31537;SDS011;18147;51.952;6.146;2023-08-06T00:40:09;23.40;;;17.33;;
31537;SDS011;18147;51.952;6.146;2023-08-06T00:42:34;21.67;;;16.55;;
31537;SDS011;18147;51.952;6.146;2023-08-06T00:45:00;24.60;;;17.27;;
31537;SDS011;18147;51.952;6.146;2023-08-06T00:47:26;22.52;;;17.30;;
31537;SDS011;18147;51.952;6.146;2023-08-06T00:49:52;31.85;;;19.10;;
31537;SDS011;18147;51.952;6.146;2023-08-06T00:52:17;30.02;;;19.30;;
31537;SDS011;18147;51.952;6.146;2023-08-06T00:54:43;30.63;;;20.23;;
31537;SDS011;18147;51.952;6.146;2023-08-06T00:57:09;26.13;;;19.55;;
31537;SDS011;18147;51.952;6.146;2023-08-06T00:59:34;31.13;;;19.75;;
31537;SDS011;18147;51.952;6.146;2023-08-06T01:02:00;31.67;;;20.20;;
31537;SDS011;18147;51.952;6.146;2023-08-06T01:04:26;27.95;;;20.45;;
31537;SDS011;18147;51.952;6.146;2023-08-06T01:06:55;35.75;;;21.67;;
31537;SDS011;18147;51.952;6.146;2023-08-06T01:15:06;29.80;;;20.75;;
31537;SDS011;18147;51.952;6.146;2023-08-06T01:17:36;31.50;;;21.05;;
31537;SDS011;18147;51.952;6.146;2023-08-06T01:20:03;37.45;;;21.75;;
31537;SDS011;18147;51.952;6.146;2023-08-06T01:22:29;31.13;;;20.85;;
31537;SDS011;18147;51.952;6.146;2023-08-06T01:24:54;26.00;;;19.58;;
31537;SDS011;18147;51.952;6.146;2023-08-06T01:27:23;36.70;;;22.20;;
31537;SDS011;18147;51.952;6.146;2023-08-06T01:30:00;40.05;;;24.42;;
31537;SDS011;18147;51.952;6.146;2023-08-06T01:32:33;37.95;;;24.15;;
31537;SDS011;18147;51.952;6.146;2023-08-06T01:35:00;42.75;;;26.63;;
31537;SDS011;18147;51.952;6.146;2023-08-06T01:37:29;41.10;;;27.20;;
31537;SDS011;18147;51.952;6.146;2023-08-06T01:39:55;39.70;;;26.02;;
31537;SDS011;18147;51.952;6.146;2023-08-06T01:42:20;48.80;;;28.17;;
31537;SDS011;18147;51.952;6.146;2023-08-06T01:44:46;47.05;;;27.80;;
31537;SDS011;18147;51.952;6.146;2023-08-06T01:47:11;48.78;;;26.65;;
31537;SDS011;18147;51.952;6.146;2023-08-06T01:49:37;41.83;;;26.83;;
31537;SDS011;18147;51.952;6.146;2023-08-06T01:52:03;44.75;;;27.60;;
31537;SDS011;18147;51.952;6.146;2023-08-06T01:54:28;45.75;;;27.60;;
31537;SDS011;18147;51.952;6.146;2023-08-06T01:56:54;39.20;;;25.80;;
31537;SDS011;18147;51.952;6.146;2023-08-06T01:59:20;34.33;;;24.02;;
31537;SDS011;18147;51.952;6.146;2023-08-06T02:01:46;34.75;;;24.88;;
31537;SDS011;18147;51.952;6.146;2023-08-06T02:04:11;31.95;;;23.20;;
31537;SDS011;18147;51.952;6.146;2023-08-06T02:06:37;35.83;;;23.90;;
31537;SDS011;18147;51.952;6.146;2023-08-06T02:09:02;36.13;;;23.98;;
31537;SDS011;18147;51.952;6.146;2023-08-06T02:11:28;33.28;;;21.65;;
31537;SDS011;18147;51.952;6.146;2023-08-06T02:13:53;32.35;;;21.52;;
31537;SDS011;18147;51.952;6.146;2023-08-06T02:16:19;26.58;;;19.33;;
31537;SDS011;18147;51.952;6.146;2023-08-06T02:18:45;28.92;;;20.75;;
31537;SDS011;18147;51.952;6.146;2023-08-06T02:21:10;29.13;;;20.20;;
31537;SDS011;18147;51.952;6.146;2023-08-06T02:23:36;29.83;;;19.00;;
31537;SDS011;18147;51.952;6.146;2023-08-06T02:26:02;30.35;;;20.05;;
31537;SDS011;18147;51.952;6.146;2023-08-06T02:28:28;28.40;;;18.70;;
31537;SDS011;18147;51.952;6.146;2023-08-06T02:30:54;34.53;;;21.48;;
31537;SDS011;18147;51.952;6.146;2023-08-06T02:33:20;31.23;;;19.42;;
31537;SDS011;18147;51.952;6.146;2023-08-06T02:35:46;29.48;;;19.92;;
31537;SDS011;18147;51.952;6.146;2023-08-06T02:38:12;33.92;;;20.52;;
31537;SDS011;18147;51.952;6.146;2023-08-06T02:40:44;31.80;;;19.90;;
31537;SDS011;18147;51.952;6.146;2023-08-06T02:43:10;36.63;;;21.20;;
31537;SDS011;18147;51.952;6.146;2023-08-06T02:45:36;32.92;;;21.40;;
31537;SDS011;18147;51.952;6.146;2023-08-06T02:48:02;39.60;;;22.90;;
31537;SDS011;18147;51.952;6.146;2023-08-06T02:50:28;28.52;;;18.55;;
31537;SDS011;18147;51.952;6.146;2023-08-06T02:52:53;34.22;;;21.42;;
31537;SDS011;18147;51.952;6.146;2023-08-06T02:55:19;33.85;;;21.17;;
31537;SDS011;18147;51.952;6.146;2023-08-06T02:57:46;32.05;;;19.45;;
31537;SDS011;18147;51.952;6.146;2023-08-06T03:00:12;39.88;;;21.35;;
31537;SDS011;18147;51.952;6.146;2023-08-06T03:02:39;30.20;;;20.80;;
31537;SDS011;18147;51.952;6.146;2023-08-06T03:05:17;41.53;;;23.13;;
31537;SDS011;18147;51.952;6.146;2023-08-06T03:07:45;32.30;;;20.75;;
31537;SDS011;18147;51.952;6.146;2023-08-06T03:10:23;28.88;;;18.95;;
31537;SDS011;18147;51.952;6.146;2023-08-06T03:12:51;36.70;;;20.15;;
31537;SDS011;18147;51.952;6.146;2023-08-06T03:15:17;34.88;;;20.65;;
31537;SDS011;18147;51.952;6.146;2023-08-06T03:17:45;30.30;;;19.48;;
31537;SDS011;18147;51.952;6.146;2023-08-06T03:20:11;29.60;;;21.15;;
31537;SDS011;18147;51.952;6.146;2023-08-06T03:22:37;30.98;;;20.85;;
31537;SDS011;18147;51.952;6.146;2023-08-06T03:25:03;33.15;;;21.85;;
31537;SDS011;18147;51.952;6.146;2023-08-06T03:27:29;29.67;;;18.77;;
31537;SDS011;18147;51.952;6.146;2023-08-06T03:29:55;27.42;;;18.95;;
31537;SDS011;18147;51.952;6.146;2023-08-06T03:32:22;32.35;;;19.58;;
31537;SDS011;18147;51.952;6.146;2023-08-06T03:34:48;33.10;;;20.35;;
31537;SDS011;18147;51.952;6.146;2023-08-06T03:37:14;27.52;;;17.63;;
31537;SDS011;18147;51.952;6.146;2023-08-06T03:39:40;30.80;;;20.80;;
31537;SDS011;18147;51.952;6.146;2023-08-06T03:42:06;36.55;;;22.35;;
31537;SDS011;18147;51.952;6.146;2023-08-06T03:44:31;29.17;;;19.85;;
31537;SDS011;18147;51.952;6.146;2023-08-06T03:46:57;29.92;;;20.38;;
31537;SDS011;18147;51.952;6.146;2023-08-06T03:49:23;33.67;;;20.88;;
31537;SDS011;18147;51.952;6.146;2023-08-06T03:51:48;33.70;;;20.05;;
31537;SDS011;18147;51.952;6.146;2023-08-06T03:54:14;25.73;;;17.90;;
31537;SDS011;18147;51.952;6.146;2023-08-06T03:56:39;24.85;;;19.65;;
31537;SDS011;18147;51.952;6.146;2023-08-06T03:59:05;28.45;;;18.42;;
31537;SDS011;18147;51.952;6.146;2023-08-06T04:01:31;29.60;;;19.60;;
31537;SDS011;18147;51.952;6.146;2023-08-06T04:03:56;22.65;;;16.52;;
31537;SDS011;18147;51.952;6.146;2023-08-06T04:06:22;31.13;;;19.25;;
31537;SDS011;18147;51.952;6.146;2023-08-06T04:08:48;29.60;;;19.05;;
31537;SDS011;18147;51.952;6.146;2023-08-06T04:11:13;31.30;;;20.63;;
31537;SDS011;18147;51.952;6.146;2023-08-06T04:13:44;31.85;;;20.42;;
31537;SDS011;18147;51.952;6.146;2023-08-06T04:16:09;27.60;;;18.42;;
31537;SDS011;18147;51.952;6.146;2023-08-06T04:18:35;29.83;;;20.77;;
31537;SDS011;18147;51.952;6.146;2023-08-06T04:21:01;33.15;;;18.88;;
31537;SDS011;18147;51.952;6.146;2023-08-06T04:23:27;32.13;;;17.55;;
31537;SDS011;18147;51.952;6.146;2023-08-06T04:25:57;29.63;;;19.30;;
31537;SDS011;18147;51.952;6.146;2023-08-06T04:28:25;34.35;;;19.42;;
31537;SDS011;18147;51.952;6.146;2023-08-06T04:30:50;28.35;;;18.38;;
31537;SDS011;18147;51.952;6.146;2023-08-06T04:33:16;28.58;;;19.25;;
31537;SDS011;18147;51.952;6.146;2023-08-06T04:35:43;27.00;;;18.88;;
31537;SDS011;18147;51.952;6.146;2023-08-06T04:38:08;36.58;;;19.88;;
31537;SDS011;18147;51.952;6.146;2023-08-06T04:40:34;32.15;;;20.20;;
31537;SDS011;18147;51.952;6.146;2023-08-06T04:43:01;28.33;;;20.02;;
31537;SDS011;18147;51.952;6.146;2023-08-06T04:45:28;29.63;;;20.15;;
31537;SDS011;18147;51.952;6.146;2023-08-06T04:47:53;30.73;;;20.50;;
31537;SDS011;18147;51.952;6.146;2023-08-06T04:50:19;28.38;;;18.23;;
31537;SDS011;18147;51.952;6.146;2023-08-06T04:52:45;32.45;;;21.20;;
31537;SDS011;18147;51.952;6.146;2023-08-06T04:55:11;28.33;;;19.17;;
31537;SDS011;18147;51.952;6.146;2023-08-06T04:57:36;31.77;;;19.75;;
31537;SDS011;18147;51.952;6.146;2023-08-06T05:00:02;29.10;;;18.27;;
31537;SDS011;18147;51.952;6.146;2023-08-06T05:02:27;32.63;;;19.52;;
31537;SDS011;18147;51.952;6.146;2023-08-06T05:04:53;34.97;;;19.58;;
31537;SDS011;18147;51.952;6.146;2023-08-06T05:07:18;33.85;;;19.10;;
31537;SDS011;18147;51.952;6.146;2023-08-06T05:09:45;30.90;;;19.27;;
31537;SDS011;18147;51.952;6.146;2023-08-06T05:12:11;31.40;;;21.08;;
31537;SDS011;18147;51.952;6.146;2023-08-06T05:14:36;31.38;;;19.42;;
31537;SDS011;18147;51.952;6.146;2023-08-06T05:17:02;35.88;;;21.85;;
31537;SDS011;18147;51.952;6.146;2023-08-06T05:19:29;33.67;;;21.95;;
31537;SDS011;18147;51.952;6.146;2023-08-06T05:21:55;33.75;;;22.92;;
31537;SDS011;18147;51.952;6.146;2023-08-06T05:24:20;41.90;;;25.23;;
31537;SDS011;18147;51.952;6.146;2023-08-06T05:26:46;34.95;;;23.45;;
31537;SDS011;18147;51.952;6.146;2023-08-06T05:29:13;47.40;;;26.95;;
31537;SDS011;18147;51.952;6.146;2023-08-06T05:31:38;47.13;;;26.77;;
31537;SDS011;18147;51.952;6.146;2023-08-06T05:34:04;39.10;;;25.40;;
31537;SDS011;18147;51.952;6.146;2023-08-06T05:36:29;49.85;;;27.70;;
31537;SDS011;18147;51.952;6.146;2023-08-06T05:38:55;44.60;;;29.67;;
31537;SDS011;18147;51.952;6.146;2023-08-06T05:41:20;38.58;;;27.42;;
31537;SDS011;18147;51.952;6.146;2023-08-06T05:43:47;47.17;;;27.95;;
31537;SDS011;18147;51.952;6.146;2023-08-06T05:46:13;41.00;;;27.08;;
31537;SDS011;18147;51.952;6.146;2023-08-06T05:48:38;45.25;;;29.92;;
31537;SDS011;18147;51.952;6.146;2023-08-06T05:51:05;46.88;;;29.95;;
31537;SDS011;18147;51.952;6.146;2023-08-06T05:53:31;49.60;;;28.98;;
31537;SDS011;18147;51.952;6.146;2023-08-06T05:55:56;46.88;;;30.77;;
31537;SDS011;18147;51.952;6.146;2023-08-06T05:58:22;43.08;;;29.65;;
31537;SDS011;18147;51.952;6.146;2023-08-06T06:00:51;40.20;;;29.27;;
31537;SDS011;18147;51.952;6.146;2023-08-06T06:03:16;42.75;;;29.13;;
31537;SDS011;18147;51.952;6.146;2023-08-06T06:05:42;45.72;;;29.67;;
31537;SDS011;18147;51.952;6.146;2023-08-06T06:08:08;41.67;;;29.02;;
31537;SDS011;18147;51.952;6.146;2023-08-06T06:10:33;44.40;;;30.25;;
31537;SDS011;18147;51.952;6.146;2023-08-06T06:13:00;45.10;;;29.42;;
31537;SDS011;18147;51.952;6.146;2023-08-06T06:15:25;41.30;;;28.90;;
31537;SDS011;18147;51.952;6.146;2023-08-06T06:17:51;37.08;;;27.73;;
31537;SDS011;18147;51.952;6.146;2023-08-06T06:20:16;36.95;;;26.73;;
31537;SDS011;18147;51.952;6.146;2023-08-06T06:22:42;36.28;;;26.45;;
31537;SDS011;18147;51.952;6.146;2023-08-06T06:25:08;37.20;;;27.10;;
31537;SDS011;18147;51.952;6.146;2023-08-06T06:27:34;35.03;;;25.60;;
31537;SDS011;18147;51.952;6.146;2023-08-06T06:30:00;38.38;;;26.60;;
31537;SDS011;18147;51.952;6.146;2023-08-06T06:32:26;40.47;;;27.70;;
31537;SDS011;18147;51.952;6.146;2023-08-06T06:34:52;43.55;;;28.60;;
31537;SDS011;18147;51.952;6.146;2023-08-06T06:37:17;36.40;;;28.00;;
31537;SDS011;18147;51.952;6.146;2023-08-06T06:39:43;40.55;;;27.17;;
31537;SDS011;18147;51.952;6.146;2023-08-06T06:42:09;39.17;;;26.13;;
31537;SDS011;18147;51.952;6.146;2023-08-06T06:44:41;39.35;;;28.08;;
31537;SDS011;18147;51.952;6.146;2023-08-06T06:47:07;39.28;;;27.30;;
31537;SDS011;18147;51.952;6.146;2023-08-06T06:49:32;39.25;;;26.83;;
31537;SDS011;18147;51.952;6.146;2023-08-06T06:51:58;39.03;;;24.92;;
31537;SDS011;18147;51.952;6.146;2023-08-06T06:54:23;35.83;;;25.65;;
31537;SDS011;18147;51.952;6.146;2023-08-06T06:56:49;37.17;;;25.85;;
31537;SDS011;18147;51.952;6.146;2023-08-06T06:59:14;38.60;;;25.48;;
31537;SDS011;18147;51.952;6.146;2023-08-06T07:01:40;37.30;;;25.73;;
31537;SDS011;18147;51.952;6.146;2023-08-06T07:04:05;34.22;;;23.92;;
31537;SDS011;18147;51.952;6.146;2023-08-06T07:06:31;38.58;;;26.90;;
31537;SDS011;18147;51.952;6.146;2023-08-06T07:08:57;34.50;;;25.20;;
31537;SDS011;18147;51.952;6.146;2023-08-06T07:11:22;35.17;;;26.75;;
31537;SDS011;18147;51.952;6.146;2023-08-06T07:13:49;34.67;;;26.48;;
31537;SDS011;18147;51.952;6.146;2023-08-06T07:16:21;35.75;;;25.90;;
31537;SDS011;18147;51.952;6.146;2023-08-06T07:18:46;32.72;;;24.85;;
31537;SDS011;18147;51.952;6.146;2023-08-06T07:21:12;33.80;;;26.75;;
31537;SDS011;18147;51.952;6.146;2023-08-06T07:23:37;35.83;;;26.23;;
31537;SDS011;18147;51.952;6.146;2023-08-06T07:26:03;38.17;;;28.60;;
31537;SDS011;18147;51.952;6.146;2023-08-06T07:28:28;45.03;;;28.65;;
31537;SDS011;18147;51.952;6.146;2023-08-06T07:30:54;40.33;;;28.17;;
31537;SDS011;18147;51.952;6.146;2023-08-06T07:33:19;37.53;;;27.13;;
31537;SDS011;18147;51.952;6.146;2023-08-06T07:35:45;36.70;;;27.65;;
31537;SDS011;18147;51.952;6.146;2023-08-06T07:38:10;43.78;;;29.70;;
31537;SDS011;18147;51.952;6.146;2023-08-06T07:40:36;39.80;;;28.45;;
31537;SDS011;18147;51.952;6.146;2023-08-06T07:43:02;36.30;;;26.17;;
31537;SDS011;18147;51.952;6.146;2023-08-06T07:45:32;32.22;;;24.80;;
31537;SDS011;18147;51.952;6.146;2023-08-06T07:47:58;31.27;;;24.58;;
31537;SDS011;18147;51.952;6.146;2023-08-06T07:50:24;36.08;;;26.45;;
31537;SDS011;18147;51.952;6.146;2023-08-06T07:52:49;33.03;;;24.90;;
31537;SDS011;18147;51.952;6.146;2023-08-06T07:55:15;35.20;;;26.77;;
31537;SDS011;18147;51.952;6.146;2023-08-06T07:57:41;37.65;;;28.20;;
31537;SDS011;18147;51.952;6.146;2023-08-06T08:00:06;30.13;;;24.33;;
31537;SDS011;18147;51.952;6.146;2023-08-06T08:02:38;33.28;;;26.67;;
31537;SDS011;18147;51.952;6.146;2023-08-06T08:05:03;39.92;;;27.23;;
31537;SDS011;18147;51.952;6.146;2023-08-06T08:07:29;31.17;;;24.88;;
31537;SDS011;18147;51.952;6.146;2023-08-06T08:09:56;32.03;;;23.83;;
31537;SDS011;18147;51.952;6.146;2023-08-06T08:12:21;32.55;;;25.58;;
31537;SDS011;18147;51.952;6.146;2023-08-06T08:14:47;35.30;;;27.42;;
31537;SDS011;18147;51.952;6.146;2023-08-06T08:17:13;29.88;;;23.65;;
31537;SDS011;18147;51.952;6.146;2023-08-06T08:19:43;29.75;;;22.80;;
31537;SDS011;18147;51.952;6.146;2023-08-06T08:22:08;34.67;;;23.38;;
31537;SDS011;18147;51.952;6.146;2023-08-06T08:24:34;31.67;;;24.08;;
31537;SDS011;18147;51.952;6.146;2023-08-06T08:26:59;30.73;;;24.65;;
31537;SDS011;18147;51.952;6.146;2023-08-06T08:29:25;25.45;;;21.67;;
31537;SDS011;18147;51.952;6.146;2023-08-06T08:31:50;29.00;;;23.27;;
31537;SDS011;18147;51.952;6.146;2023-08-06T08:34:16;25.58;;;21.20;;
31537;SDS011;18147;51.952;6.146;2023-08-06T08:36:42;28.20;;;22.92;;
31537;SDS011;18147;51.952;6.146;2023-08-06T08:39:08;25.38;;;21.48;;
31537;SDS011;18147;51.952;6.146;2023-08-06T08:41:35;29.98;;;22.42;;
31537;SDS011;18147;51.952;6.146;2023-08-06T08:44:01;23.75;;;20.40;;
31537;SDS011;18147;51.952;6.146;2023-08-06T08:46:29;26.05;;;21.58;;
31537;SDS011;18147;51.952;6.146;2023-08-06T08:48:57;32.38;;;22.30;;
31537;SDS011;18147;51.952;6.146;2023-08-06T08:51:25;22.00;;;19.70;;
31537;SDS011;18147;51.952;6.146;2023-08-06T08:53:53;24.23;;;20.63;;
31537;SDS011;18147;51.952;6.146;2023-08-06T08:56:21;21.02;;;18.10;;
31537;SDS011;18147;51.952;6.146;2023-08-06T08:58:47;21.80;;;18.40;;
31537;SDS011;18147;51.952;6.146;2023-08-06T09:01:14;24.85;;;19.20;;
31537;SDS011;18147;51.952;6.146;2023-08-06T09:03:41;23.25;;;19.83;;
31537;SDS011;18147;51.952;6.146;2023-08-06T09:06:08;25.38;;;20.08;;
31537;SDS011;18147;51.952;6.146;2023-08-06T09:08:39;26.38;;;19.80;;
31537;SDS011;18147;51.952;6.146;2023-08-06T09:11:09;24.15;;;18.10;;
31537;SDS011;18147;51.952;6.146;2023-08-06T09:13:38;19.58;;;17.52;;
31537;SDS011;18147;51.952;6.146;2023-08-06T09:16:04;21.30;;;16.95;;
31537;SDS011;18147;51.952;6.146;2023-08-06T09:18:30;18.23;;;15.93;;
31537;SDS011;18147;51.952;6.146;2023-08-06T09:20:57;22.17;;;17.65;;
31537;SDS011;18147;51.952;6.146;2023-08-06T09:23:29;21.35;;;17.25;;
31537;SDS011;18147;51.952;6.146;2023-08-06T09:25:57;19.58;;;15.00;;
31537;SDS011;18147;51.952;6.146;2023-08-06T09:28:23;19.23;;;15.63;;
31537;SDS011;18147;51.952;6.146;2023-08-06T09:30:49;22.35;;;17.08;;
31537;SDS011;18147;51.952;6.146;2023-08-06T09:33:18;18.42;;;14.40;;
31537;SDS011;18147;51.952;6.146;2023-08-06T09:35:45;17.48;;;15.35;;
31537;SDS011;18147;51.952;6.146;2023-08-06T09:38:12;18.38;;;13.32;;
31537;SDS011;18147;51.952;6.146;2023-08-06T09:40:38;15.00;;;12.68;;
31537;SDS011;18147;51.952;6.146;2023-08-06T09:43:05;16.05;;;14.05;;
31537;SDS011;18147;51.952;6.146;2023-08-06T09:45:32;14.50;;;12.32;;
31537;SDS011;18147;51.952;6.146;2023-08-06T09:47:59;15.13;;;12.13;;
31537;SDS011;18147;51.952;6.146;2023-08-06T09:50:30;12.60;;;10.80;;
31537;SDS011;18147;51.952;6.146;2023-08-06T09:53:01;17.52;;;12.85;;
31537;SDS011;18147;51.952;6.146;2023-08-06T09:55:28;17.80;;;14.60;;
31537;SDS011;18147;51.952;6.146;2023-08-06T09:57:54;11.10;;;10.00;;
31537;SDS011;18147;51.952;6.146;2023-08-06T10:00:20;13.23;;;11.85;;
31537;SDS011;18147;51.952;6.146;2023-08-06T10:02:47;17.85;;;12.95;;
31537;SDS011;18147;51.952;6.146;2023-08-06T10:05:14;17.58;;;15.75;;
31537;SDS011;18147;51.952;6.146;2023-08-06T10:07:42;20.05;;;16.13;;
31537;SDS011;18147;51.952;6.146;2023-08-06T10:10:08;20.45;;;16.58;;
31537;SDS011;18147;51.952;6.146;2023-08-06T10:12:36;20.60;;;16.65;;
31537;SDS011;18147;51.952;6.146;2023-08-06T10:15:07;21.90;;;16.40;;
31537;SDS011;18147;51.952;6.146;2023-08-06T10:17:35;21.77;;;16.00;;
31537;SDS011;18147;51.952;6.146;2023-08-06T10:20:07;18.33;;;16.25;;
31537;SDS011;18147;51.952;6.146;2023-08-06T10:22:33;23.20;;;18.63;;
31537;SDS011;18147;51.952;6.146;2023-08-06T10:25:00;21.58;;;19.27;;
31537;SDS011;18147;51.952;6.146;2023-08-06T10:27:31;21.90;;;19.42;;
31537;SDS011;18147;51.952;6.146;2023-08-06T10:32:51;21.42;;;19.25;;
31537;SDS011;18147;51.952;6.146;2023-08-06T10:40:35;23.75;;;21.10;;
31537;SDS011;18147;51.952;6.146;2023-08-06T10:43:02;36.20;;;25.13;;
31537;SDS011;18147;51.952;6.146;2023-08-06T10:45:29;38.90;;;25.73;;
31537;SDS011;18147;51.952;6.146;2023-08-06T10:47:55;55.53;;;26.70;;
31537;SDS011;18147;51.952;6.146;2023-08-06T10:50:23;44.42;;;27.30;;
31537;SDS011;18147;51.952;6.146;2023-08-06T10:52:49;42.28;;;26.63;;
31537;SDS011;18147;51.952;6.146;2023-08-06T10:55:28;37.38;;;25.50;;
31537;SDS011;18147;51.952;6.146;2023-08-06T10:57:54;35.08;;;25.27;;
31537;SDS011;18147;51.952;6.146;2023-08-06T11:00:22;32.35;;;23.80;;
31537;SDS011;18147;51.952;6.146;2023-08-06T11:02:49;36.17;;;24.70;;
31537;SDS011;18147;51.952;6.146;2023-08-06T11:05:15;30.50;;;22.73;;
31537;SDS011;18147;51.952;6.146;2023-08-06T11:07:41;35.95;;;23.92;;
31537;SDS011;18147;51.952;6.146;2023-08-06T11:10:08;60.10;;;30.55;;
31537;SDS011;18147;51.952;6.146;2023-08-06T11:12:35;87.13;;;36.00;;
31537;SDS011;18147;51.952;6.146;2023-08-06T11:15:01;59.17;;;28.25;;
31537;SDS011;18147;51.952;6.146;2023-08-06T11:17:28;97.68;;;24.05;;
31537;SDS011;18147;51.952;6.146;2023-08-06T11:19:55;87.68;;;24.33;;
31537;SDS011;18147;51.952;6.146;2023-08-06T11:22:21;31.17;;;8.13;;
31537;SDS011;18147;51.952;6.146;2023-08-06T11:24:48;21.05;;;7.90;;
31537;SDS011;18147;51.952;6.146;2023-08-06T11:27:14;11.40;;;7.18;;
31537;SDS011;18147;51.952;6.146;2023-08-06T11:29:41;26.38;;;5.63;;
31537;SDS011;18147;51.952;6.146;2023-08-06T11:32:10;6.38;;;3.13;;
31537;SDS011;18147;51.952;6.146;2023-08-06T11:34:39;5.47;;;3.28;;
31537;SDS011;18147;51.952;6.146;2023-08-06T11:37:06;7.72;;;2.53;;
31537;SDS011;18147;51.952;6.146;2023-08-06T11:39:35;7.20;;;2.83;;
31537;SDS011;18147;51.952;6.146;2023-08-06T11:42:02;4.40;;;2.33;;
31537;SDS011;18147;51.952;6.146;2023-08-06T11:44:33;5.00;;;2.75;;
31537;SDS011;18147;51.952;6.146;2023-08-06T11:47:01;6.38;;;3.00;;
31537;SDS011;18147;51.952;6.146;2023-08-06T11:50:04;7.22;;;2.80;;
31537;SDS011;18147;51.952;6.146;2023-08-06T11:52:23;4.00;;;2.72;;
31537;SDS011;18147;51.952;6.146;2023-08-06T11:55:05;8.13;;;2.97;;
31537;SDS011;18147;51.952;6.146;2023-08-06T11:57:36;7.47;;;2.97;;
31537;SDS011;18147;51.952;6.146;2023-08-06T12:00:05;3.77;;;2.83;;
31537;SDS011;18147;51.952;6.146;2023-08-06T12:02:41;7.75;;;3.35;;
31537;SDS011;18147;51.952;6.146;2023-08-06T12:05:15;5.10;;;3.17;;
31537;SDS011;18147;51.952;6.146;2023-08-06T12:07:42;4.60;;;3.20;;
31537;SDS011;18147;51.952;6.146;2023-08-06T12:10:10;3.70;;;2.85;;
31537;SDS011;18147;51.952;6.146;2023-08-06T12:12:37;9.75;;;3.72;;
31537;SDS011;18147;51.952;6.146;2023-08-06T12:15:04;8.40;;;4.05;;
31537;SDS011;18147;51.952;6.146;2023-08-06T12:17:31;4.78;;;3.25;;
31537;SDS011;18147;51.952;6.146;2023-08-06T12:19:57;3.90;;;2.95;;
31537;SDS011;18147;51.952;6.146;2023-08-06T12:22:22;3.92;;;3.15;;
31537;SDS011;18147;51.952;6.146;2023-08-06T12:24:48;5.72;;;3.10;;
31537;SDS011;18147;51.952;6.146;2023-08-06T12:27:14;6.25;;;5.22;;
31537;SDS011;18147;51.952;6.146;2023-08-06T12:29:45;6.07;;;3.28;;
31537;SDS011;18147;51.952;6.146;2023-08-06T12:32:12;4.43;;;3.45;;
31537;SDS011;18147;51.952;6.146;2023-08-06T12:34:40;4.30;;;3.85;;
31537;SDS011;18147;51.952;6.146;2023-08-06T12:37:06;9.25;;;4.32;;
31537;SDS011;18147;51.952;6.146;2023-08-06T12:39:32;7.20;;;3.78;;
31537;SDS011;18147;51.952;6.146;2023-08-06T12:42:01;4.47;;;3.60;;
31537;SDS011;18147;51.952;6.146;2023-08-06T12:44:28;7.28;;;4.95;;
31537;SDS011;18147;51.952;6.146;2023-08-06T12:46:54;8.77;;;4.93;;
31537;SDS011;18147;51.952;6.146;2023-08-06T12:49:20;12.30;;;7.15;;
31537;SDS011;18147;51.952;6.146;2023-08-06T12:51:49;10.32;;;5.75;;
31537;SDS011;18147;51.952;6.146;2023-08-06T12:54:19;11.15;;;7.05;;
31537;SDS011;18147;51.952;6.146;2023-08-06T12:56:45;11.23;;;7.10;;
31537;SDS011;18147;51.952;6.146;2023-08-06T12:59:13;12.38;;;7.95;;
31537;SDS011;18147;51.952;6.146;2023-08-06T13:01:39;12.32;;;6.97;;
31537;SDS011;18147;51.952;6.146;2023-08-06T13:04:05;11.30;;;6.50;;
31537;SDS011;18147;51.952;6.146;2023-08-06T13:06:30;14.48;;;7.43;;
31537;SDS011;18147;51.952;6.146;2023-08-06T13:09:01;19.35;;;7.35;;
31537;SDS011;18147;51.952;6.146;2023-08-06T13:11:31;18.80;;;8.77;;
31537;SDS011;18147;51.952;6.146;2023-08-06T13:13:59;11.40;;;6.82;;
31537;SDS011;18147;51.952;6.146;2023-08-06T13:16:29;13.43;;;8.32;;
31537;SDS011;18147;51.952;6.146;2023-08-06T13:18:55;12.88;;;8.23;;
31537;SDS011;18147;51.952;6.146;2023-08-06T13:21:20;20.83;;;8.85;;
31537;SDS011;18147;51.952;6.146;2023-08-06T13:23:46;10.23;;;7.47;;
31537;SDS011;18147;51.952;6.146;2023-08-06T13:26:13;10.55;;;6.68;;
31537;SDS011;18147;51.952;6.146;2023-08-06T13:28:40;19.88;;;8.95;;
31537;SDS011;18147;51.952;6.146;2023-08-06T13:31:06;10.60;;;6.38;;
31537;SDS011;18147;51.952;6.146;2023-08-06T13:33:32;10.90;;;6.18;;
31537;SDS011;18147;51.952;6.146;2023-08-06T13:35:58;12.18;;;6.50;;
31537;SDS011;18147;51.952;6.146;2023-08-06T13:38:23;15.82;;;7.28;;
31537;SDS011;18147;51.952;6.146;2023-08-06T13:40:49;10.63;;;6.93;;
31537;SDS011;18147;51.952;6.146;2023-08-06T13:43:15;15.20;;;7.95;;
31537;SDS011;18147;51.952;6.146;2023-08-06T13:45:42;17.83;;;9.40;;
31537;SDS011;18147;51.952;6.146;2023-08-06T13:48:07;11.88;;;7.90;;
31537;SDS011;18147;51.952;6.146;2023-08-06T13:50:33;15.50;;;8.55;;
31537;SDS011;18147;51.952;6.146;2023-08-06T13:52:59;14.00;;;8.32;;
31537;SDS011;18147;51.952;6.146;2023-08-06T13:55:25;11.68;;;7.65;;
31537;SDS011;18147;51.952;6.146;2023-08-06T13:57:51;14.55;;;8.10;;
31537;SDS011;18147;51.952;6.146;2023-08-06T14:00:17;11.98;;;8.27;;
31537;SDS011;18147;51.952;6.146;2023-08-06T14:02:43;11.48;;;7.38;;
31537;SDS011;18147;51.952;6.146;2023-08-06T14:05:10;13.85;;;9.23;;
31537;SDS011;18147;51.952;6.146;2023-08-06T14:07:35;11.25;;;8.13;;
31537;SDS011;18147;51.952;6.146;2023-08-06T14:10:03;12.32;;;8.40;;
31537;SDS011;18147;51.952;6.146;2023-08-06T14:12:29;15.15;;;9.32;;
31537;SDS011;18147;51.952;6.146;2023-08-06T14:14:56;16.48;;;9.68;;
31537;SDS011;18147;51.952;6.146;2023-08-06T14:17:22;11.45;;;8.13;;
31537;SDS011;18147;51.952;6.146;2023-08-06T14:19:47;13.63;;;8.18;;
31537;SDS011;18147;51.952;6.146;2023-08-06T14:22:13;13.75;;;8.10;;
31537;SDS011;18147;51.952;6.146;2023-08-06T14:24:39;12.35;;;7.90;;
31537;SDS011;18147;51.952;6.146;2023-08-06T14:27:05;9.95;;;6.03;;
31537;SDS011;18147;51.952;6.146;2023-08-06T14:29:31;23.42;;;8.30;;
31537;SDS011;18147;51.952;6.146;2023-08-06T14:31:57;14.95;;;7.40;;
31537;SDS011;18147;51.952;6.146;2023-08-06T14:34:22;20.00;;;8.90;;
31537;SDS011;18147;51.952;6.146;2023-08-06T14:36:48;12.82;;;7.80;;